sensor_id;sensor_type;location;lat;lon;timestamp;P1;durP1;ratioP1;P2;durP2;ratioP2
69894;SDS011;57172;52.034;5.090;2023-04-02T00:07:49;0.80;;;0.80;;
69894;SDS011;57172;52.034;5.090;2023-04-02T00:15:42;0.70;;;0.70;;
69894;SDS011;57172;52.034;5.090;2023-04-02T00:18:14;0.77;;;0.75;;
69894;SDS011;57172;52.034;5.090;2023-04-02T00:20:45;0.60;;;0.60;;
69894;SDS011;57172;52.034;5.090;2023-04-02T00:23:18;0.80;;;0.80;;
69894;SDS011;57172;52.034;5.090;2023-04-02T00:25:45;0.80;;;0.80;;
69894;SDS011;57172;52.034;5.090;2023-04-02T00:28:16;1.13;;;1.02;;
69894;SDS011;57172;52.034;5.090;2023-04-02T00:33:19;0.73;;;0.73;;
69894;SDS011;57172;52.034;5.090;2023-04-02T00:35:49;0.70;;;0.70;;
69894;SDS011;57172;52.034;5.090;2023-04-02T00:38:24;1.25;;;1.10;;
69894;SDS011;57172;52.034;5.090;2023-04-02T00:40:53;0.73;;;0.73;;
69894;SDS011;57172;52.034;5.090;2023-04-02T00:43:22;0.70;;;0.70;;
69894;SDS011;57172;52.034;5.090;2023-04-02T00:45:54;0.73;;;0.73;;
69894;SDS011;57172;52.034;5.090;2023-04-02T00:50:57;0.75;;;0.75;;
69894;SDS011;57172;52.034;5.090;2023-04-02T00:53:32;0.80;;;0.80;;
69894;SDS011;57172;52.034;5.090;2023-04-02T00:56:00;2.20;;;2.08;;
69894;SDS011;57172;52.034;5.090;2023-04-02T00:58:31;0.70;;;0.70;;
69894;SDS011;57172;52.034;5.090;2023-04-02T01:01:00;1.00;;;0.82;;
69894;SDS011;57172;52.034;5.090;2023-04-02T01:03:34;0.80;;;0.80;;
69894;SDS011;57172;52.034;5.090;2023-04-02T01:06:04;0.95;;;0.80;;
69894;SDS011;57172;52.034;5.090;2023-04-02T01:08:46;0.75;;;0.75;;
69894;SDS011;57172;52.034;5.090;2023-04-02T01:17:06;0.70;;;0.70;;
69894;SDS011;57172;52.034;5.090;2023-04-02T01:22:28;0.70;;;0.70;;
69894;SDS011;57172;52.034;5.090;2023-04-02T01:25:01;1.10;;;1.00;;
69894;SDS011;57172;52.034;5.090;2023-04-02T01:27:33;1.05;;;0.95;;
69894;SDS011;57172;52.034;5.090;2023-04-02T01:30:09;0.60;;;0.60;;
69894;SDS011;57172;52.034;5.090;2023-04-02T01:32:37;0.93;;;0.88;;
69894;SDS011;57172;52.034;5.090;2023-04-02T01:35:06;0.70;;;0.70;;
69894;SDS011;57172;52.034;5.090;2023-04-02T01:46:23;0.80;;;0.80;;
69894;SDS011;57172;52.034;5.090;2023-04-02T01:49:18;1.23;;;1.13;;
69894;SDS011;57172;52.034;5.090;2023-04-02T01:51:49;1.00;;;0.90;;
69894;SDS011;57172;52.034;5.090;2023-04-02T01:54:20;0.60;;;0.60;;
69894;SDS011;57172;52.034;5.090;2023-04-02T01:56:48;0.80;;;0.80;;
69894;SDS011;57172;52.034;5.090;2023-04-02T01:59:17;0.70;;;0.70;;
69894;SDS011;57172;52.034;5.090;2023-04-02T02:01:52;1.38;;;1.27;;
69894;SDS011;57172;52.034;5.090;2023-04-02T02:04:27;0.90;;;0.85;;
69894;SDS011;57172;52.034;5.090;2023-04-02T02:06:55;1.05;;;0.95;;
69894;SDS011;57172;52.034;5.090;2023-04-02T02:09:24;0.75;;;0.75;;
69894;SDS011;57172;52.034;5.090;2023-04-02T02:11:58;0.70;;;0.70;;
69894;SDS011;57172;52.034;5.090;2023-04-02T02:14:27;0.70;;;0.70;;
69894;SDS011;57172;52.034;5.090;2023-04-02T02:16:59;0.70;;;0.70;;
69894;SDS011;57172;52.034;5.090;2023-04-02T02:19:37;0.70;;;0.70;;
69894;SDS011;57172;52.034;5.090;2023-04-02T02:22:11;0.68;;;0.65;;
69894;SDS011;57172;52.034;5.090;2023-04-02T02:24:39;0.73;;;0.70;;
69894;SDS011;57172;52.034;5.090;2023-04-02T02:27:24;0.60;;;0.60;;
69894;SDS011;57172;52.034;5.090;2023-04-02T02:30:09;0.70;;;0.70;;
69894;SDS011;57172;52.034;5.090;2023-04-02T02:33:11;1.20;;;1.10;;
69894;SDS011;57172;52.034;5.090;2023-04-02T02:44:19;0.80;;;0.80;;
69894;SDS011;57172;52.034;5.090;2023-04-02T02:47:14;0.70;;;0.70;;
69894;SDS011;57172;52.034;5.090;2023-04-02T02:49:42;0.70;;;0.70;;
69894;SDS011;57172;52.034;5.090;2023-04-02T02:52:35;0.70;;;0.70;;
69894;SDS011;57172;52.034;5.090;2023-04-02T02:55:18;0.70;;;0.70;;
69894;SDS011;57172;52.034;5.090;2023-04-02T02:58:05;0.70;;;0.70;;
69894;SDS011;57172;52.034;5.090;2023-04-02T03:00:46;0.98;;;0.90;;
69894;SDS011;57172;52.034;5.090;2023-04-02T03:03:15;0.70;;;0.70;;
69894;SDS011;57172;52.034;5.090;2023-04-02T03:05:52;0.60;;;0.60;;
69894;SDS011;57172;52.034;5.090;2023-04-02T03:11:33;0.80;;;0.80;;
69894;SDS011;57172;52.034;5.090;2023-04-02T03:17:19;1.42;;;1.33;;
69894;SDS011;57172;52.034;5.090;2023-04-02T03:19:56;0.68;;;0.68;;
69894;SDS011;57172;52.034;5.090;2023-04-02T03:28:25;0.70;;;0.70;;
69894;SDS011;57172;52.034;5.090;2023-04-02T03:31:04;0.65;;;0.65;;
69894;SDS011;57172;52.034;5.090;2023-04-02T03:33:36;0.70;;;0.70;;
69894;SDS011;57172;52.034;5.090;2023-04-02T03:38:49;0.63;;;0.63;;
69894;SDS011;57172;52.034;5.090;2023-04-02T03:44:04;0.70;;;0.70;;
69894;SDS011;57172;52.034;5.090;2023-04-02T03:46:46;1.02;;;0.80;;
69894;SDS011;57172;52.034;5.090;2023-04-02T03:49:28;0.60;;;0.60;;
69894;SDS011;57172;52.034;5.090;2023-04-02T03:52:13;0.70;;;0.70;;
69894;SDS011;57172;52.034;5.090;2023-04-02T03:54:45;0.70;;;0.70;;
69894;SDS011;57172;52.034;5.090;2023-04-02T03:57:26;0.70;;;0.70;;
69894;SDS011;57172;52.034;5.090;2023-04-02T04:00:04;0.70;;;0.70;;
69894;SDS011;57172;52.034;5.090;2023-04-02T04:02:50;0.70;;;0.70;;
69894;SDS011;57172;52.034;5.090;2023-04-02T04:05:28;1.00;;;0.90;;
69894;SDS011;57172;52.034;5.090;2023-04-02T04:08:03;1.20;;;1.10;;
69894;SDS011;57172;52.034;5.090;2023-04-02T04:10:34;0.70;;;0.70;;
69894;SDS011;57172;52.034;5.090;2023-04-02T04:13:05;0.70;;;0.63;;
69894;SDS011;57172;52.034;5.090;2023-04-02T04:15:50;0.70;;;0.70;;
69894;SDS011;57172;52.034;5.090;2023-04-02T04:18:32;0.80;;;0.80;;
69894;SDS011;57172;52.034;5.090;2023-04-02T04:21:24;0.85;;;0.82;;
69894;SDS011;57172;52.034;5.090;2023-04-02T04:24:19;0.90;;;0.80;;
69894;SDS011;57172;52.034;5.090;2023-04-02T04:26:59;0.70;;;0.70;;
69894;SDS011;57172;52.034;5.090;2023-04-02T04:37:44;0.70;;;0.70;;
69894;SDS011;57172;52.034;5.090;2023-04-02T04:40:19;0.65;;;0.65;;
69894;SDS011;57172;52.034;5.090;2023-04-02T04:42:54;1.05;;;0.95;;
69894;SDS011;57172;52.034;5.090;2023-04-02T04:48:18;0.60;;;0.60;;
69894;SDS011;57172;52.034;5.090;2023-04-02T04:50:54;0.80;;;0.80;;
69894;SDS011;57172;52.034;5.090;2023-04-02T04:53:29;0.70;;;0.70;;
69894;SDS011;57172;52.034;5.090;2023-04-02T04:55:59;0.70;;;0.70;;
69894;SDS011;57172;52.034;5.090;2023-04-02T04:58:48;0.70;;;0.70;;
69894;SDS011;57172;52.034;5.090;2023-04-02T05:04:00;1.10;;;1.00;;
69894;SDS011;57172;52.034;5.090;2023-04-02T05:13:19;0.80;;;0.80;;
69894;SDS011;57172;52.034;5.090;2023-04-02T05:23:54;0.70;;;0.70;;
69894;SDS011;57172;52.034;5.090;2023-04-02T05:26:46;0.80;;;0.80;;
69894;SDS011;57172;52.034;5.090;2023-04-02T05:29:26;0.70;;;0.70;;
69894;SDS011;57172;52.034;5.090;2023-04-02T05:32:03;0.70;;;0.70;;
69894;SDS011;57172;52.034;5.090;2023-04-02T05:34:40;0.70;;;0.70;;
69894;SDS011;57172;52.034;5.090;2023-04-02T05:37:17;0.70;;;0.70;;
69894;SDS011;57172;52.034;5.090;2023-04-02T05:39:49;0.60;;;0.60;;
69894;SDS011;57172;52.034;5.090;2023-04-02T05:42:28;0.88;;;0.80;;
69894;SDS011;57172;52.034;5.090;2023-04-02T05:47:39;0.73;;;0.73;;
69894;SDS011;57172;52.034;5.090;2023-04-02T05:52:55;0.70;;;0.70;;
69894;SDS011;57172;52.034;5.090;2023-04-02T05:55:34;0.70;;;0.70;;
69894;SDS011;57172;52.034;5.090;2023-04-02T05:58:26;0.70;;;0.70;;
69894;SDS011;57172;52.034;5.090;2023-04-02T06:01:27;0.60;;;0.60;;
69894;SDS011;57172;52.034;5.090;2023-04-02T06:04:05;0.80;;;0.80;;
69894;SDS011;57172;52.034;5.090;2023-04-02T06:06:58;0.77;;;0.77;;
69894;SDS011;57172;52.034;5.090;2023-04-02T06:09:36;1.27;;;1.17;;
69894;SDS011;57172;52.034;5.090;2023-04-02T06:12:49;0.70;;;0.60;;
69894;SDS011;57172;52.034;5.090;2023-04-02T06:15:20;1.13;;;1.02;;
69894;SDS011;57172;52.034;5.090;2023-04-02T06:20:26;8.75;;;3.75;;
69894;SDS011;57172;52.034;5.090;2023-04-02T06:23:06;7.43;;;3.78;;
69894;SDS011;57172;52.034;5.090;2023-04-02T06:28:45;7.90;;;3.40;;
69894;SDS011;57172;52.034;5.090;2023-04-02T06:31:38;7.88;;;3.70;;
69894;SDS011;57172;52.034;5.090;2023-04-02T06:34:18;7.72;;;3.70;;
69894;SDS011;57172;52.034;5.090;2023-04-02T06:37:00;8.68;;;4.03;;
69894;SDS011;57172;52.034;5.090;2023-04-02T06:39:32;8.70;;;3.85;;
69894;SDS011;57172;52.034;5.090;2023-04-02T06:42:05;10.30;;;4.32;;
69894;SDS011;57172;52.034;5.090;2023-04-02T06:44:55;10.75;;;4.32;;
69894;SDS011;57172;52.034;5.090;2023-04-02T06:47:41;8.48;;;4.43;;
69894;SDS011;57172;52.034;5.090;2023-04-02T06:50:21;9.88;;;4.50;;
69894;SDS011;57172;52.034;5.090;2023-04-02T06:52:55;8.98;;;4.47;;
69894;SDS011;57172;52.034;5.090;2023-04-02T06:58:09;10.27;;;5.20;;
69894;SDS011;57172;52.034;5.090;2023-04-02T07:00:38;9.48;;;5.03;;
69894;SDS011;57172;52.034;5.090;2023-04-02T07:03:24;12.23;;;5.20;;
69894;SDS011;57172;52.034;5.090;2023-04-02T07:05:55;10.48;;;5.03;;
69894;SDS011;57172;52.034;5.090;2023-04-02T07:08:23;14.13;;;5.13;;
69894;SDS011;57172;52.034;5.090;2023-04-02T07:10:50;11.52;;;5.30;;
69894;SDS011;57172;52.034;5.090;2023-04-02T07:13:18;13.32;;;5.95;;
69894;SDS011;57172;52.034;5.090;2023-04-02T07:15:48;12.68;;;5.70;;
69894;SDS011;57172;52.034;5.090;2023-04-02T07:18:31;13.32;;;5.72;;
69894;SDS011;57172;52.034;5.090;2023-04-02T07:21:02;11.63;;;6.22;;
69894;SDS011;57172;52.034;5.090;2023-04-02T07:23:29;10.93;;;6.45;;
69894;SDS011;57172;52.034;5.090;2023-04-02T07:25:56;12.55;;;6.20;;
69894;SDS011;57172;52.034;5.090;2023-04-02T07:28:24;11.32;;;6.40;;
69894;SDS011;57172;52.034;5.090;2023-04-02T07:30:51;11.93;;;6.53;;
69894;SDS011;57172;52.034;5.090;2023-04-02T07:33:20;10.02;;;6.35;;
69894;SDS011;57172;52.034;5.090;2023-04-02T07:35:50;15.07;;;6.85;;
69894;SDS011;57172;52.034;5.090;2023-04-02T07:38:18;14.68;;;7.03;;
69894;SDS011;57172;52.034;5.090;2023-04-02T07:40:45;12.68;;;6.75;;
69894;SDS011;57172;52.034;5.090;2023-04-02T07:43:13;10.75;;;6.32;;
69894;SDS011;57172;52.034;5.090;2023-04-02T07:45:40;12.05;;;6.63;;
69894;SDS011;57172;52.034;5.090;2023-04-02T07:48:08;11.38;;;6.30;;
69894;SDS011;57172;52.034;5.090;2023-04-02T07:50:37;13.07;;;6.43;;
69894;SDS011;57172;52.034;5.090;2023-04-02T07:53:04;11.73;;;6.25;;
69894;SDS011;57172;52.034;5.090;2023-04-02T07:55:32;13.18;;;6.80;;
69894;SDS011;57172;52.034;5.090;2023-04-02T07:57:59;10.68;;;6.60;;
69894;SDS011;57172;52.034;5.090;2023-04-02T08:00:27;12.00;;;6.32;;
69894;SDS011;57172;52.034;5.090;2023-04-02T08:02:54;12.65;;;6.43;;
69894;SDS011;57172;52.034;5.090;2023-04-02T08:05:21;11.30;;;6.10;;
69894;SDS011;57172;52.034;5.090;2023-04-02T08:07:52;10.10;;;5.95;;
69894;SDS011;57172;52.034;5.090;2023-04-02T08:10:20;12.40;;;6.38;;
69894;SDS011;57172;52.034;5.090;2023-04-02T08:12:48;10.85;;;5.60;;
69894;SDS011;57172;52.034;5.090;2023-04-02T08:15:15;10.18;;;5.47;;
69894;SDS011;57172;52.034;5.090;2023-04-02T08:17:43;8.40;;;5.15;;
69894;SDS011;57172;52.034;5.090;2023-04-02T08:20:14;11.80;;;5.78;;
69894;SDS011;57172;52.034;5.090;2023-04-02T08:22:46;10.07;;;5.78;;
69894;SDS011;57172;52.034;5.090;2023-04-02T08:25:14;10.05;;;5.43;;
69894;SDS011;57172;52.034;5.090;2023-04-02T08:27:42;9.25;;;5.57;;
69894;SDS011;57172;52.034;5.090;2023-04-02T08:30:14;10.48;;;5.78;;
69894;SDS011;57172;52.034;5.090;2023-04-02T08:32:42;10.40;;;5.45;;
69894;SDS011;57172;52.034;5.090;2023-04-02T08:35:10;8.50;;;5.30;;
69894;SDS011;57172;52.034;5.090;2023-04-02T08:37:39;9.00;;;5.00;;
69894;SDS011;57172;52.034;5.090;2023-04-02T08:40:10;9.75;;;5.30;;
69894;SDS011;57172;52.034;5.090;2023-04-02T08:43:17;9.70;;;4.90;;
69894;SDS011;57172;52.034;5.090;2023-04-02T08:46:18;9.10;;;4.90;;
69894;SDS011;57172;52.034;5.090;2023-04-02T08:48:54;10.85;;;5.25;;
69894;SDS011;57172;52.034;5.090;2023-04-02T08:51:33;8.50;;;5.25;;
69894;SDS011;57172;52.034;5.090;2023-04-02T08:54:23;9.07;;;5.10;;
69894;SDS011;57172;52.034;5.090;2023-04-02T08:59:57;10.52;;;5.80;;
69894;SDS011;57172;52.034;5.090;2023-04-02T09:02:36;10.15;;;5.65;;
69894;SDS011;57172;52.034;5.090;2023-04-02T09:05:08;12.48;;;5.45;;
69894;SDS011;57172;52.034;5.090;2023-04-02T09:07:51;11.80;;;5.30;;
69894;SDS011;57172;52.034;5.090;2023-04-02T09:10:20;8.50;;;5.25;;
69894;SDS011;57172;52.034;5.090;2023-04-02T09:12:58;9.10;;;5.28;;
69894;SDS011;57172;52.034;5.090;2023-04-02T09:15:31;8.40;;;5.47;;
69894;SDS011;57172;52.034;5.090;2023-04-02T09:18:12;10.48;;;5.50;;
69894;SDS011;57172;52.034;5.090;2023-04-02T09:20:41;9.05;;;5.22;;
69894;SDS011;57172;52.034;5.090;2023-04-02T09:23:13;10.98;;;5.80;;
69894;SDS011;57172;52.034;5.090;2023-04-02T09:25:45;10.13;;;6.00;;
69894;SDS011;57172;52.034;5.090;2023-04-02T09:28:26;13.70;;;6.50;;
69894;SDS011;57172;52.034;5.090;2023-04-02T09:31:01;11.82;;;6.78;;
69894;SDS011;57172;52.034;5.090;2023-04-02T09:33:44;15.27;;;6.55;;
69894;SDS011;57172;52.034;5.090;2023-04-02T09:36:35;11.03;;;6.60;;
69894;SDS011;57172;52.034;5.090;2023-04-02T09:39:16;13.50;;;7.25;;
69894;SDS011;57172;52.034;5.090;2023-04-02T09:41:48;10.90;;;7.10;;
69894;SDS011;57172;52.034;5.090;2023-04-02T09:44:30;10.93;;;6.75;;
69894;SDS011;57172;52.034;5.090;2023-04-02T09:46:58;10.68;;;7.18;;
69894;SDS011;57172;52.034;5.090;2023-04-02T09:49:37;10.33;;;6.87;;
69894;SDS011;57172;52.034;5.090;2023-04-02T09:52:16;11.98;;;7.03;;
69894;SDS011;57172;52.034;5.090;2023-04-02T09:54:51;10.85;;;7.22;;
69894;SDS011;57172;52.034;5.090;2023-04-02T09:57:42;10.93;;;7.00;;
69894;SDS011;57172;52.034;5.090;2023-04-02T10:08:50;8.88;;;5.40;;
69894;SDS011;57172;52.034;5.090;2023-04-02T10:11:18;8.77;;;5.10;;
69894;SDS011;57172;52.034;5.090;2023-04-02T10:14:18;7.85;;;4.70;;
69894;SDS011;57172;52.034;5.090;2023-04-02T10:17:16;8.17;;;4.10;;
69894;SDS011;57172;52.034;5.090;2023-04-02T10:19:48;7.32;;;3.88;;
69894;SDS011;57172;52.034;5.090;2023-04-02T10:22:18;7.93;;;3.90;;
69894;SDS011;57172;52.034;5.090;2023-04-02T10:24:47;6.57;;;3.50;;
69894;SDS011;57172;52.034;5.090;2023-04-02T10:27:35;5.05;;;3.15;;
69894;SDS011;57172;52.034;5.090;2023-04-02T10:30:26;6.00;;;3.30;;
69894;SDS011;57172;52.034;5.090;2023-04-02T10:35:39;6.38;;;3.10;;
69894;SDS011;57172;52.034;5.090;2023-04-02T10:38:27;6.82;;;3.15;;
69894;SDS011;57172;52.034;5.090;2023-04-02T10:44:10;6.87;;;3.30;;
69894;SDS011;57172;52.034;5.090;2023-04-02T10:47:05;6.05;;;3.08;;
69894;SDS011;57172;52.034;5.090;2023-04-02T10:52:30;6.68;;;3.00;;
69894;SDS011;57172;52.034;5.090;2023-04-02T10:55:06;5.15;;;2.72;;
69894;SDS011;57172;52.034;5.090;2023-04-02T10:57:48;5.90;;;2.87;;
69894;SDS011;57172;52.034;5.090;2023-04-02T11:00:27;5.30;;;2.70;;
69894;SDS011;57172;52.034;5.090;2023-04-02T11:03:09;7.13;;;2.83;;
69894;SDS011;57172;52.034;5.090;2023-04-02T11:05:41;5.75;;;2.95;;
69894;SDS011;57172;52.034;5.090;2023-04-02T11:08:39;4.80;;;2.70;;
69894;SDS011;57172;52.034;5.090;2023-04-02T11:11:17;5.67;;;2.83;;
69894;SDS011;57172;52.034;5.090;2023-04-02T11:16:23;6.38;;;3.05;;
69894;SDS011;57172;52.034;5.090;2023-04-02T11:27:03;7.00;;;3.47;;
69894;SDS011;57172;52.034;5.090;2023-04-02T11:29:37;5.82;;;3.03;;
69894;SDS011;57172;52.034;5.090;2023-04-02T11:37:38;8.83;;;3.50;;
69894;SDS011;57172;52.034;5.090;2023-04-02T11:50:27;6.87;;;3.40;;
69894;SDS011;57172;52.034;5.090;2023-04-02T11:53:00;6.00;;;3.13;;
69894;SDS011;57172;52.034;5.090;2023-04-02T11:55:32;4.70;;;3.03;;
69894;SDS011;57172;52.034;5.090;2023-04-02T12:03:45;6.33;;;3.10;;
69894;SDS011;57172;52.034;5.090;2023-04-02T12:09:22;6.55;;;3.00;;
69894;SDS011;57172;52.034;5.090;2023-04-02T12:11:53;7.22;;;3.20;;
69894;SDS011;57172;52.034;5.090;2023-04-02T12:17:01;5.30;;;3.07;;
69894;SDS011;57172;52.034;5.090;2023-04-02T12:19:45;5.75;;;2.90;;
69894;SDS011;57172;52.034;5.090;2023-04-02T12:22:22;5.70;;;3.00;;
69894;SDS011;57172;52.034;5.090;2023-04-02T12:24:52;4.15;;;2.80;;
69894;SDS011;57172;52.034;5.090;2023-04-02T12:27:23;6.75;;;3.00;;
69894;SDS011;57172;52.034;5.090;2023-04-02T12:29:53;5.67;;;2.93;;
69894;SDS011;57172;52.034;5.090;2023-04-02T12:34:55;6.05;;;3.20;;
69894;SDS011;57172;52.034;5.090;2023-04-02T12:37:27;5.50;;;3.00;;
69894;SDS011;57172;52.034;5.090;2023-04-02T12:40:00;5.32;;;3.00;;
69894;SDS011;57172;52.034;5.090;2023-04-02T12:42:33;5.13;;;2.97;;
69894;SDS011;57172;52.034;5.090;2023-04-02T12:45:03;5.35;;;3.05;;
69894;SDS011;57172;52.034;5.090;2023-04-02T12:47:32;5.50;;;3.03;;
69894;SDS011;57172;52.034;5.090;2023-04-02T12:49:59;6.13;;;2.90;;
69894;SDS011;57172;52.034;5.090;2023-04-02T12:52:27;5.95;;;3.00;;
69894;SDS011;57172;52.034;5.090;2023-04-02T12:54:56;6.13;;;3.10;;
69894;SDS011;57172;52.034;5.090;2023-04-02T12:57:30;5.43;;;3.00;;
69894;SDS011;57172;52.034;5.090;2023-04-02T13:00:00;7.30;;;3.15;;
69894;SDS011;57172;52.034;5.090;2023-04-02T13:08:02;7.23;;;3.20;;
69894;SDS011;57172;52.034;5.090;2023-04-02T13:10:30;5.38;;;3.03;;
69894;SDS011;57172;52.034;5.090;2023-04-02T13:13:01;7.60;;;3.50;;
69894;SDS011;57172;52.034;5.090;2023-04-02T13:15:30;5.30;;;2.97;;
69894;SDS011;57172;52.034;5.090;2023-04-02T13:18:12;6.13;;;3.10;;
69894;SDS011;57172;52.034;5.090;2023-04-02T13:25:56;5.38;;;3.28;;
69894;SDS011;57172;52.034;5.090;2023-04-02T13:28:27;5.70;;;3.13;;
69894;SDS011;57172;52.034;5.090;2023-04-02T13:30:54;6.75;;;3.33;;
69894;SDS011;57172;52.034;5.090;2023-04-02T13:33:21;5.33;;;3.17;;
69894;SDS011;57172;52.034;5.090;2023-04-02T13:35:48;6.65;;;3.10;;
69894;SDS011;57172;52.034;5.090;2023-04-02T13:38:15;5.32;;;3.33;;
69894;SDS011;57172;52.034;5.090;2023-04-02T13:40:42;5.72;;;3.03;;
69894;SDS011;57172;52.034;5.090;2023-04-02T13:43:14;4.57;;;2.83;;
69894;SDS011;57172;52.034;5.090;2023-04-02T13:45:50;6.23;;;3.03;;
69894;SDS011;57172;52.034;5.090;2023-04-02T13:48:19;6.03;;;3.03;;
69894;SDS011;57172;52.034;5.090;2023-04-02T13:50:49;7.18;;;2.92;;
69894;SDS011;57172;52.034;5.090;2023-04-02T13:53:22;5.07;;;2.90;;
69894;SDS011;57172;52.034;5.090;2023-04-02T13:55:55;5.22;;;3.00;;
69894;SDS011;57172;52.034;5.090;2023-04-02T13:58:22;5.70;;;2.80;;
69894;SDS011;57172;52.034;5.090;2023-04-02T14:00:49;11.18;;;3.15;;
69894;SDS011;57172;52.034;5.090;2023-04-02T14:03:18;5.68;;;2.92;;
69894;SDS011;57172;52.034;5.090;2023-04-02T14:08:30;5.57;;;2.70;;
69894;SDS011;57172;52.034;5.090;2023-04-02T14:11:09;7.13;;;2.60;;
69894;SDS011;57172;52.034;5.090;2023-04-02T14:32:22;6.30;;;2.40;;
69894;SDS011;57172;52.034;5.090;2023-04-02T14:34:54;4.00;;;2.40;;
69894;SDS011;57172;52.034;5.090;2023-04-02T14:42:40;5.97;;;2.60;;
69894;SDS011;57172;52.034;5.090;2023-04-02T14:45:33;12.30;;;3.65;;
69894;SDS011;57172;52.034;5.090;2023-04-02T14:50:46;5.13;;;2.87;;
69894;SDS011;57172;52.034;5.090;2023-04-02T14:53:18;4.35;;;2.58;;
69894;SDS011;57172;52.034;5.090;2023-04-02T14:55:49;6.70;;;2.72;;
69894;SDS011;57172;52.034;5.090;2023-04-02T14:58:20;4.93;;;2.60;;
69894;SDS011;57172;52.034;5.090;2023-04-02T15:00:57;6.30;;;2.80;;
69894;SDS011;57172;52.034;5.090;2023-04-02T15:03:29;5.57;;;2.40;;
69894;SDS011;57172;52.034;5.090;2023-04-02T15:06:04;5.28;;;2.40;;
69894;SDS011;57172;52.034;5.090;2023-04-02T15:08:35;5.53;;;2.53;;
69894;SDS011;57172;52.034;5.090;2023-04-02T15:11:08;3.83;;;2.30;;
69894;SDS011;57172;52.034;5.090;2023-04-02T15:13:44;4.53;;;2.60;;
69894;SDS011;57172;52.034;5.090;2023-04-02T15:16:22;5.53;;;2.70;;
69894;SDS011;57172;52.034;5.090;2023-04-02T15:18:56;4.15;;;2.50;;
69894;SDS011;57172;52.034;5.090;2023-04-02T15:24:39;4.03;;;2.20;;
69894;SDS011;57172;52.034;5.090;2023-04-02T15:29:56;6.37;;;2.50;;
69894;SDS011;57172;52.034;5.090;2023-04-02T15:32:48;4.20;;;2.40;;
69894;SDS011;57172;52.034;5.090;2023-04-02T15:38:18;7.32;;;2.30;;
69894;SDS011;57172;52.034;5.090;2023-04-02T15:43:30;3.80;;;2.70;;
69894;SDS011;57172;52.034;5.090;2023-04-02T15:46:09;3.83;;;2.20;;
69894;SDS011;57172;52.034;5.090;2023-04-02T15:49:23;4.65;;;2.47;;
69894;SDS011;57172;52.034;5.090;2023-04-02T16:00:24;5.70;;;2.20;;
69894;SDS011;57172;52.034;5.090;2023-04-02T16:11:13;5.37;;;2.60;;
69894;SDS011;57172;52.034;5.090;2023-04-02T16:13:41;4.18;;;2.50;;
69894;SDS011;57172;52.034;5.090;2023-04-02T16:16:13;5.45;;;2.70;;
69894;SDS011;57172;52.034;5.090;2023-04-02T16:19:01;5.03;;;2.45;;
69894;SDS011;57172;52.034;5.090;2023-04-02T16:21:44;5.72;;;2.90;;
69894;SDS011;57172;52.034;5.090;2023-04-02T16:24:17;6.97;;;3.50;;
69894;SDS011;57172;52.034;5.090;2023-04-02T16:26:53;5.82;;;2.65;;
69894;SDS011;57172;52.034;5.090;2023-04-02T16:29:26;5.05;;;2.53;;
69894;SDS011;57172;52.034;5.090;2023-04-02T16:32:22;5.38;;;2.35;;
69894;SDS011;57172;52.034;5.090;2023-04-02T16:40:48;5.90;;;2.42;;
69894;SDS011;57172;52.034;5.090;2023-04-02T16:46:29;4.55;;;2.30;;
69894;SDS011;57172;52.034;5.090;2023-04-02T16:49:21;3.92;;;2.28;;
69894;SDS011;57172;52.034;5.090;2023-04-02T16:52:24;5.43;;;2.40;;
69894;SDS011;57172;52.034;5.090;2023-04-02T17:03:45;4.70;;;2.22;;
69894;SDS011;57172;52.034;5.090;2023-04-02T17:06:44;4.87;;;2.53;;
69894;SDS011;57172;52.034;5.090;2023-04-02T17:09:33;3.63;;;2.30;;
69894;SDS011;57172;52.034;5.090;2023-04-02T17:14:45;4.57;;;2.50;;
69894;SDS011;57172;52.034;5.090;2023-04-02T17:17:18;6.00;;;2.53;;
69894;SDS011;57172;52.034;5.090;2023-04-02T17:19:46;5.10;;;2.50;;
69894;SDS011;57172;52.034;5.090;2023-04-02T17:22:18;4.60;;;2.33;;
69894;SDS011;57172;52.034;5.090;2023-04-02T17:24:49;4.63;;;2.40;;
69894;SDS011;57172;52.034;5.090;2023-04-02T17:30:20;3.88;;;2.10;;
69894;SDS011;57172;52.034;5.090;2023-04-02T17:32:49;4.40;;;2.30;;
69894;SDS011;57172;52.034;5.090;2023-04-02T17:38:24;4.63;;;2.40;;
69894;SDS011;57172;52.034;5.090;2023-04-02T17:51:54;3.80;;;2.05;;
69894;SDS011;57172;52.034;5.090;2023-04-02T17:57:26;7.10;;;2.40;;
69894;SDS011;57172;52.034;5.090;2023-04-02T18:05:38;4.60;;;2.20;;
69894;SDS011;57172;52.034;5.090;2023-04-02T18:08:22;5.72;;;2.40;;
69894;SDS011;57172;52.034;5.090;2023-04-02T18:13:59;4.50;;;2.30;;
69894;SDS011;57172;52.034;5.090;2023-04-02T18:20:35;4.35;;;2.33;;
69894;SDS011;57172;52.034;5.090;2023-04-02T18:23:10;5.43;;;2.30;;
69894;SDS011;57172;52.034;5.090;2023-04-02T18:28:47;5.57;;;2.50;;
69894;SDS011;57172;52.034;5.090;2023-04-02T18:31:31;4.65;;;2.30;;
69894;SDS011;57172;52.034;5.090;2023-04-02T18:39:35;5.00;;;2.22;;
69894;SDS011;57172;52.034;5.090;2023-04-02T18:42:08;5.40;;;2.60;;
69894;SDS011;57172;52.034;5.090;2023-04-02T18:50:33;6.53;;;2.70;;
69894;SDS011;57172;52.034;5.090;2023-04-02T18:53:12;5.53;;;2.40;;
69894;SDS011;57172;52.034;5.090;2023-04-02T18:55:45;5.93;;;2.20;;
69894;SDS011;57172;52.034;5.090;2023-04-02T18:58:19;5.15;;;2.17;;
69894;SDS011;57172;52.034;5.090;2023-04-02T19:01:08;5.72;;;2.53;;
69894;SDS011;57172;52.034;5.090;2023-04-02T19:03:40;5.45;;;2.40;;
69894;SDS011;57172;52.034;5.090;2023-04-02T19:06:14;5.05;;;2.30;;
69894;SDS011;57172;52.034;5.090;2023-04-02T19:08:47;5.17;;;2.57;;
69894;SDS011;57172;52.034;5.090;2023-04-02T19:11:41;4.65;;;2.50;;
69894;SDS011;57172;52.034;5.090;2023-04-02T19:14:10;5.22;;;2.50;;
69894;SDS011;57172;52.034;5.090;2023-04-02T19:16:43;4.55;;;2.45;;
69894;SDS011;57172;52.034;5.090;2023-04-02T19:19:45;6.72;;;2.80;;
69894;SDS011;57172;52.034;5.090;2023-04-02T19:25:05;8.20;;;3.30;;
69894;SDS011;57172;52.034;5.090;2023-04-02T19:27:54;6.18;;;2.88;;
69894;SDS011;57172;52.034;5.090;2023-04-02T19:30:37;6.07;;;3.20;;
69894;SDS011;57172;52.034;5.090;2023-04-02T19:36:02;7.20;;;2.90;;
69894;SDS011;57172;52.034;5.090;2023-04-02T19:38:39;5.30;;;2.53;;
69894;SDS011;57172;52.034;5.090;2023-04-02T19:44:20;5.50;;;2.80;;
69894;SDS011;57172;52.034;5.090;2023-04-02T19:46:47;5.07;;;2.60;;
69894;SDS011;57172;52.034;5.090;2023-04-02T19:49:17;5.47;;;2.58;;
69894;SDS011;57172;52.034;5.090;2023-04-02T19:51:51;6.60;;;3.10;;
69894;SDS011;57172;52.034;5.090;2023-04-02T19:54:18;6.10;;;2.80;;
69894;SDS011;57172;52.034;5.090;2023-04-02T19:56:46;5.07;;;2.92;;
69894;SDS011;57172;52.034;5.090;2023-04-02T19:59:13;4.38;;;2.60;;
69894;SDS011;57172;52.034;5.090;2023-04-02T20:01:44;6.80;;;2.70;;
69894;SDS011;57172;52.034;5.090;2023-04-02T20:04:11;4.38;;;2.42;;
69894;SDS011;57172;52.034;5.090;2023-04-02T20:06:38;7.07;;;3.05;;
69894;SDS011;57172;52.034;5.090;2023-04-02T20:09:05;6.38;;;3.10;;
69894;SDS011;57172;52.034;5.090;2023-04-02T20:11:34;6.95;;;3.00;;
69894;SDS011;57172;52.034;5.090;2023-04-02T20:14:03;4.70;;;2.50;;
69894;SDS011;57172;52.034;5.090;2023-04-02T20:16:31;5.20;;;2.45;;
69894;SDS011;57172;52.034;5.090;2023-04-02T20:18:59;5.05;;;2.40;;
69894;SDS011;57172;52.034;5.090;2023-04-02T20:21:26;7.15;;;2.70;;
69894;SDS011;57172;52.034;5.090;2023-04-02T20:23:54;6.60;;;2.70;;
69894;SDS011;57172;52.034;5.090;2023-04-02T20:26:21;4.90;;;2.37;;
69894;SDS011;57172;52.034;5.090;2023-04-02T20:28:48;5.60;;;2.67;;
69894;SDS011;57172;52.034;5.090;2023-04-02T20:31:16;7.13;;;2.63;;
69894;SDS011;57172;52.034;5.090;2023-04-02T20:33:44;6.97;;;2.30;;
69894;SDS011;57172;52.034;5.090;2023-04-02T20:36:16;4.95;;;1.92;;
69894;SDS011;57172;52.034;5.090;2023-04-02T20:38:43;4.90;;;1.97;;
69894;SDS011;57172;52.034;5.090;2023-04-02T20:41:11;4.30;;;1.80;;